createdAt,value
2022-10-31T00:00:19.447Z,99.99
2022-10-31T00:01:19.431Z,99.99
2022-10-31T00:02:19.442Z,99.99
2022-10-31T00:03:19.379Z,99.99
2022-10-31T00:04:19.361Z,99.99
2022-10-31T00:05:19.512Z,99.99
2022-10-31T00:06:19.464Z,99.99
2022-10-31T00:07:19.332Z,99.99
2022-10-31T00:08:19.299Z,99.99
2022-10-31T00:09:19.302Z,99.99
2022-10-31T00:10:19.420Z,99.99
2022-10-31T00:11:19.307Z,99.99
2022-10-31T00:12:19.256Z,99.99
2022-10-31T00:13:19.356Z,99.99
2022-10-31T00:14:19.278Z,99.99
2022-10-31T00:15:19.222Z,99.99
2022-10-31T00:16:19.229Z,99.99
2022-10-31T00:17:19.188Z,99.99
2022-10-31T00:18:19.220Z,99.99
2022-10-31T00:19:19.165Z,99.99
2022-10-31T00:20:19.146Z,99.99
2022-10-31T00:21:19.244Z,99.99
2022-10-31T00:22:19.119Z,99.99
2022-10-31T00:23:19.108Z,99.99
2022-10-31T00:24:19.148Z,99.99
2022-10-31T00:25:19.086Z,99.99
2022-10-31T00:26:19.099Z,99.99
2022-10-31T00:27:19.118Z,99.99
2022-10-31T00:29:19.035Z,99.99
2022-10-31T00:30:19.035Z,99.99
2022-10-31T00:31:19.124Z,99.99
2022-10-31T00:32:18.996Z,99.99
2022-10-31T00:33:18.978Z,99.99
2022-10-31T00:34:18.965Z,99.99
2022-10-31T00:35:19.027Z,99.99
2022-10-31T00:36:18.960Z,99.99
2022-10-31T00:37:18.947Z,99.99
2022-10-31T00:38:18.957Z,99.99
2022-10-31T00:39:18.908Z,99.99
2022-10-31T00:40:18.888Z,99.99
2022-10-31T00:41:18.897Z,99.99
2022-10-31T00:42:18.877Z,99.99
2022-10-31T00:43:18.903Z,99.99
2022-10-31T00:44:18.916Z,99.99
2022-10-31T00:45:18.817Z,99.99
2022-10-31T00:46:18.827Z,99.99
2022-10-31T00:47:18.797Z,99.99
2022-10-31T00:48:18.840Z,99.99
2022-10-31T00:49:18.778Z,99.99
2022-10-31T00:50:18.750Z,99.99
2022-10-31T00:51:18.769Z,99.99
2022-10-31T00:52:18.776Z,99.99
2022-10-31T00:53:18.726Z,99.99
2022-10-31T00:54:18.696Z,99.99
2022-10-31T00:55:18.686Z,99.99
2022-10-31T00:56:18.818Z,99.99
2022-10-31T00:57:18.667Z,99.99
2022-10-31T00:58:18.647Z,99.99
2022-10-31T00:59:18.636Z,99.99
2022-10-31T01:00:18.706Z,99.99
2022-10-31T01:01:18.766Z,99.99
2022-10-31T01:02:18.698Z,99.99
2022-10-31T01:03:18.648Z,99.99
2022-10-31T01:04:22.666Z,99.99
2022-10-31T01:05:18.560Z,99.99
2022-10-31T01:06:19.487Z,99.99
2022-10-31T01:07:18.557Z,99.99
2022-10-31T01:08:18.514Z,99.99
2022-10-31T01:09:18.496Z,99.99
2022-10-31T01:10:18.486Z,99.99
2022-10-31T01:11:18.477Z,99.99
2022-10-31T01:12:18.586Z,99.99
2022-10-31T01:13:18.490Z,99.99
2022-10-31T01:14:18.717Z,99.99
2022-10-31T01:15:18.428Z,99.99
2022-10-31T01:16:18.406Z,99.99
2022-10-31T01:17:18.423Z,99.99
2022-10-31T01:18:18.376Z,99.99
2022-10-31T01:19:18.374Z,99.99
2022-10-31T01:20:18.355Z,99.99
2022-10-31T01:21:18.342Z,99.99
2022-10-31T01:22:18.385Z,99.99
2022-10-31T01:23:18.315Z,99.99
2022-10-31T01:24:18.296Z,99.99
2022-10-31T01:25:18.287Z,99.99
2022-10-31T01:26:18.274Z,99.99
2022-10-31T01:27:18.296Z,99.99
2022-10-31T01:28:18.258Z,99.99
2022-10-31T01:29:18.245Z,99.99
2022-10-31T01:30:18.225Z,99.99
2022-10-31T01:31:18.509Z,99.99
2022-10-31T01:32:18.215Z,99.99
2022-10-31T01:33:18.185Z,99.99
2022-10-31T01:34:18.165Z,99.99
2022-10-31T01:35:18.156Z,99.99
2022-10-31T01:36:18.148Z,99.99
2022-10-31T01:37:18.155Z,99.99
2022-10-31T01:38:18.115Z,99.99
2022-10-31T01:39:18.104Z,99.99
2022-10-31T01:40:18.086Z,99.99
2022-10-31T01:41:18.082Z,99.99
2022-10-31T01:42:18.086Z,99.99
2022-10-31T01:43:18.064Z,99.99
2022-10-31T01:44:18.041Z,99.99
2022-10-31T01:45:18.025Z,99.99
2022-10-31T01:46:18.006Z,99.99
2022-10-31T01:47:18.025Z,99.99
2022-10-31T01:48:17.976Z,99.99
2022-10-31T01:49:17.970Z,99.99
2022-10-31T01:50:17.955Z,99.99
2022-10-31T01:51:17.943Z,99.99
2022-10-31T01:52:17.944Z,99.99
2022-10-31T01:53:19.177Z,99.99
2022-10-31T01:54:17.895Z,99.99
2022-10-31T01:55:17.894Z,99.99
2022-10-31T01:56:17.877Z,99.99
2022-10-31T01:57:17.895Z,99.99
2022-10-31T01:59:17.846Z,99.99
2022-10-31T02:00:17.816Z,99.99
2022-10-31T02:01:17.881Z,99.99
2022-10-31T02:02:17.912Z,99.99
2022-10-31T02:03:17.816Z,99.99
2022-10-31T02:04:17.765Z,99.99
2022-10-31T02:05:17.752Z,99.99
2022-10-31T02:06:17.765Z,99.99
2022-10-31T02:07:17.725Z,99.99
2022-10-31T02:08:17.715Z,99.99
2022-10-31T02:09:17.695Z,99.99
2022-10-31T02:10:17.685Z,99.99
2022-10-31T02:11:17.705Z,99.99
2022-10-31T02:12:17.665Z,99.99
2022-10-31T02:13:17.669Z,99.99
2022-10-31T02:14:17.644Z,99.99
2022-10-31T02:15:17.615Z,99.99
2022-10-31T02:16:17.644Z,99.99
2022-10-31T02:17:17.614Z,99.99
2022-10-31T02:18:17.585Z,99.99
2022-10-31T02:19:17.567Z,99.99
2022-10-31T02:20:17.566Z,99.99
2022-10-31T02:21:17.604Z,99.99
2022-10-31T02:22:17.554Z,99.99
2022-10-31T02:23:17.667Z,99.99
2022-10-31T02:24:18.494Z,99.99
2022-10-31T02:25:17.485Z,99.99
2022-10-31T02:26:17.474Z,99.99
2022-10-31T02:27:17.484Z,99.99
2022-10-31T02:29:17.438Z,99.99
2022-10-31T02:30:17.424Z,99.99
2022-10-31T02:31:17.404Z,99.99
2022-10-31T02:32:17.425Z,99.99
2022-10-31T02:33:17.382Z,99.99
2022-10-31T02:34:17.374Z,99.99
2022-10-31T02:35:17.355Z,99.99
2022-10-31T02:36:17.344Z,99.99
2022-10-31T02:37:17.355Z,99.99
2022-10-31T02:38:17.314Z,99.99
2022-10-31T02:39:17.301Z,99.99
2022-10-31T02:40:17.294Z,99.99
2022-10-31T02:41:17.275Z,99.99
2022-10-31T02:42:17.294Z,99.99
2022-10-31T02:43:17.287Z,99.99
2022-10-31T02:44:17.246Z,99.99
2022-10-31T02:45:17.224Z,99.99
2022-10-31T02:46:17.204Z,99.99
2022-10-31T02:47:17.231Z,99.99
2022-10-31T02:48:17.185Z,99.99
2022-10-31T02:49:17.174Z,99.99
2022-10-31T02:50:17.154Z,99.99
2022-10-31T02:51:17.144Z,99.99
2022-10-31T02:52:17.158Z,99.99
2022-10-31T02:53:17.115Z,99.99
2022-10-31T02:54:17.104Z,99.99
2022-10-31T02:55:17.093Z,99.99
2022-10-31T02:56:17.081Z,99.99
2022-10-31T02:57:17.094Z,99.99
2022-10-31T02:58:17.068Z,99.99
2022-10-31T02:59:17.034Z,99.99
2022-10-31T03:00:17.027Z,99.99
2022-10-31T03:01:17.090Z,99.99
2022-10-31T03:02:17.211Z,99.99
2022-10-31T03:03:16.984Z,99.99
2022-10-31T03:04:16.978Z,99.99
2022-10-31T03:05:16.965Z,99.99
2022-10-31T03:06:16.953Z,99.99
2022-10-31T03:07:16.966Z,99.99
2022-10-31T03:08:16.941Z,99.99
2022-10-31T03:09:16.904Z,99.99
2022-10-31T03:10:16.901Z,99.99
2022-10-31T03:11:16.875Z,99.99
2022-10-31T03:12:16.895Z,99.99
2022-10-31T03:13:16.907Z,99.99
2022-10-31T03:14:16.844Z,99.99
2022-10-31T03:15:16.823Z,99.99
2022-10-31T03:16:16.852Z,99.99
2022-10-31T03:17:16.833Z,99.99
2022-10-31T03:18:16.793Z,99.99
2022-10-31T03:19:16.776Z,99.99
2022-10-31T03:20:16.762Z,99.99
2022-10-31T03:21:16.744Z,99.99
2022-10-31T03:22:16.763Z,99.99
2022-10-31T03:23:16.722Z,99.99
2022-10-31T03:24:16.711Z,99.99
2022-10-31T03:25:16.694Z,99.99
2022-10-31T03:26:16.683Z,99.99
2022-10-31T03:27:16.692Z,99.99
2022-10-31T03:28:16.686Z,99.99
2022-10-31T03:29:16.632Z,99.99
2022-10-31T03:30:16.622Z,99.99
2022-10-31T03:31:16.616Z,99.99
2022-10-31T03:32:16.632Z,99.99
2022-10-31T03:33:16.583Z,99.99
2022-10-31T03:34:16.579Z,99.99
2022-10-31T03:35:16.564Z,99.99
2022-10-31T03:36:16.562Z,99.99
2022-10-31T03:37:16.572Z,99.99
2022-10-31T03:38:16.539Z,99.99
2022-10-31T03:39:17.272Z,99.99
2022-10-31T03:40:16.500Z,99.99
2022-10-31T03:41:16.481Z,99.99
2022-10-31T03:42:16.504Z,99.99
2022-10-31T03:43:16.516Z,99.99
2022-10-31T03:44:16.443Z,99.99
2022-10-31T03:45:16.421Z,99.99
2022-10-31T03:46:16.411Z,99.99
2022-10-31T03:47:16.423Z,99.99
2022-10-31T03:48:16.392Z,99.99
2022-10-31T03:49:16.371Z,99.99
2022-10-31T03:50:16.363Z,99.99
2022-10-31T03:51:16.342Z,99.99
2022-10-31T03:52:16.492Z,99.99
2022-10-31T03:53:16.321Z,99.99
2022-10-31T03:54:16.311Z,99.99
2022-10-31T03:55:16.387Z,99.99
2022-10-31T03:56:16.282Z,99.99
2022-10-31T03:57:16.352Z,99.99
2022-10-31T03:58:16.268Z,99.99
2022-10-31T03:59:16.243Z,99.99
2022-10-31T04:00:16.232Z,99.99
2022-10-31T04:01:16.263Z,99.99
2022-10-31T04:02:16.402Z,99.99
2022-10-31T04:03:16.322Z,99.99
2022-10-31T04:04:16.202Z,99.99
2022-10-31T04:05:16.162Z,99.99
2022-10-31T04:06:16.151Z,99.99
2022-10-31T04:07:16.161Z,99.99
2022-10-31T04:08:16.122Z,99.99
2022-10-31T04:09:16.109Z,99.99
2022-10-31T04:10:16.111Z,99.99
2022-10-31T04:11:16.221Z,99.99
2022-10-31T04:12:16.102Z,99.99
2022-10-31T04:13:16.104Z,99.99
2022-10-31T04:14:16.049Z,99.99
2022-10-31T04:15:16.793Z,99.99
2022-10-31T04:16:17.281Z,99.99
2022-10-31T04:17:16.031Z,99.99
2022-10-31T04:18:15.993Z,99.99
2022-10-31T04:19:15.978Z,99.99
2022-10-31T04:20:15.970Z,99.99
2022-10-31T04:21:15.949Z,99.99
2022-10-31T04:22:15.969Z,99.99
2022-10-31T04:23:15.921Z,99.99
2022-10-31T04:24:15.910Z,99.99
2022-10-31T04:25:15.901Z,99.99
2022-10-31T04:26:15.892Z,99.99
2022-10-31T04:27:16.232Z,99.99
2022-10-31T04:28:15.907Z,99.99
2022-10-31T04:29:15.848Z,99.99
2022-10-31T04:30:15.839Z,99.99
2022-10-31T04:31:15.821Z,99.99
2022-10-31T04:32:15.831Z,99.99
2022-10-31T04:33:15.792Z,99.99
2022-10-31T04:34:15.780Z,99.99
2022-10-31T04:35:15.760Z,99.99
2022-10-31T04:36:15.759Z,99.99
2022-10-31T04:37:15.759Z,99.99
2022-10-31T04:38:15.730Z,99.99
2022-10-31T04:39:15.774Z,99.99
2022-10-31T04:40:15.702Z,99.99
2022-10-31T04:41:15.819Z,99.99
2022-10-31T04:42:15.700Z,99.99
2022-10-31T04:43:15.725Z,99.99
2022-10-31T04:44:15.650Z,99.99
2022-10-31T04:45:18.537Z,99.99
2022-10-31T04:46:16.619Z,99.99
2022-10-31T04:47:15.920Z,99.99
2022-10-31T04:48:15.599Z,99.99
2022-10-31T04:49:15.583Z,99.99
2022-10-31T04:50:15.569Z,99.99
2022-10-31T04:51:15.556Z,99.99
2022-10-31T04:52:15.569Z,99.99
2022-10-31T04:53:15.519Z,99.99
2022-10-31T04:54:15.520Z,99.99
2022-10-31T04:55:15.499Z,99.99
2022-10-31T04:56:15.489Z,99.99
2022-10-31T04:57:19.906Z,99.99
2022-10-31T04:59:15.486Z,99.99
2022-10-31T05:00:15.473Z,99.99
2022-10-31T05:01:15.555Z,99.99
2022-10-31T05:02:15.545Z,99.99
2022-10-31T05:03:15.420Z,99.99
2022-10-31T05:04:15.390Z,99.99
2022-10-31T05:05:15.368Z,99.99
2022-10-31T05:06:15.359Z,99.99
2022-10-31T05:07:15.528Z,99.99
2022-10-31T05:08:15.416Z,99.99
2022-10-31T05:09:15.739Z,99.99
2022-10-31T05:10:15.308Z,99.99
2022-10-31T05:11:15.290Z,99.99
2022-10-31T05:12:15.510Z,99.99
2022-10-31T05:13:15.310Z,99.99
2022-10-31T05:14:15.259Z,99.99
2022-10-31T05:15:15.378Z,99.99
2022-10-31T05:16:15.298Z,99.99
2022-10-31T05:17:15.208Z,99.99
2022-10-31T05:18:15.228Z,99.99
2022-10-31T05:19:15.187Z,99.99
2022-10-31T05:20:15.180Z,99.99
2022-10-31T05:21:15.157Z,99.99
2022-10-31T05:22:15.147Z,99.99
2022-10-31T05:23:15.157Z,99.99
2022-10-31T05:24:15.128Z,99.99
2022-10-31T05:25:15.111Z,99.99
2022-10-31T05:26:15.100Z,99.99
2022-10-31T05:27:15.077Z,99.99
2022-10-31T05:28:15.098Z,99.99
2022-10-31T05:29:15.048Z,99.99
2022-10-31T05:30:15.048Z,99.99
2022-10-31T05:31:15.027Z,99.99
2022-10-31T05:32:15.016Z,99.99
2022-10-31T05:33:15.130Z,99.99
2022-10-31T05:34:14.987Z,99.99
2022-10-31T05:35:15.018Z,99.99
2022-10-31T05:36:14.967Z,99.99
2022-10-31T05:37:14.946Z,99.99
2022-10-31T05:38:14.967Z,99.99
2022-10-31T05:39:14.924Z,99.99
2022-10-31T05:40:14.915Z,99.99
2022-10-31T05:41:14.847Z,99.99
2022-10-31T05:42:14.885Z,99.99
2022-10-31T05:43:14.895Z,99.99
2022-10-31T05:44:14.817Z,99.99
2022-10-31T05:45:14.795Z,99.99
2022-10-31T05:46:14.776Z,99.99
2022-10-31T05:47:14.823Z,99.99
2022-10-31T05:48:14.853Z,99.99
2022-10-31T05:49:14.745Z,99.99
2022-10-31T05:50:14.726Z,99.99
2022-10-31T05:51:14.726Z,99.99
2022-10-31T05:52:14.714Z,99.99
2022-10-31T05:53:14.706Z,99.99
2022-10-31T05:54:15.995Z,99.99
2022-10-31T05:55:14.657Z,99.99
2022-10-31T05:56:14.663Z,99.99
2022-10-31T05:57:14.636Z,99.99
2022-10-31T05:58:14.653Z,99.99
2022-10-31T05:59:14.607Z,99.99
2022-10-31T06:00:14.595Z,99.99
2022-10-31T06:01:14.646Z,99.99
2022-10-31T06:02:14.566Z,99.99
2022-10-31T06:03:14.585Z,99.99
2022-10-31T06:04:14.618Z,99.99
2022-10-31T06:05:14.619Z,99.99
2022-10-31T06:06:14.520Z,99.99
2022-10-31T06:07:14.494Z,99.99
2022-10-31T06:08:14.523Z,99.99
2022-10-31T06:09:14.475Z,99.99
2022-10-31T06:10:14.466Z,99.99
2022-10-31T06:11:14.474Z,99.99
2022-10-31T06:12:14.442Z,99.99
2022-10-31T06:13:14.454Z,99.99
2022-10-31T06:14:14.415Z,99.99
2022-10-31T06:15:14.398Z,99.99
2022-10-31T06:16:14.390Z,99.99
2022-10-31T06:17:15.315Z,99.99
2022-10-31T06:18:14.394Z,99.99
2022-10-31T06:19:14.342Z,99.99
2022-10-31T06:20:14.333Z,99.99
2022-10-31T06:21:17.881Z,99.99
2022-10-31T06:22:14.342Z,99.99
2022-10-31T06:23:14.313Z,99.99
2022-10-31T06:24:14.279Z,99.99
2022-10-31T06:25:14.269Z,99.99
2022-10-31T06:26:14.252Z,99.99
2022-10-31T06:27:14.243Z,99.99
2022-10-31T06:28:14.262Z,99.99
2022-10-31T06:29:14.222Z,99.99
2022-10-31T06:30:14.208Z,99.99
2022-10-31T06:31:14.183Z,99.99
2022-10-31T06:32:14.171Z,99.99
2022-10-31T06:33:14.183Z,99.99
2022-10-31T06:34:14.152Z,99.99
2022-10-31T06:35:14.132Z,99.99
2022-10-31T06:36:14.150Z,99.99
2022-10-31T06:37:14.121Z,99.99
2022-10-31T06:38:14.122Z,99.99
2022-10-31T06:39:14.082Z,99.99
2022-10-31T06:40:14.072Z,99.99
2022-10-31T06:41:14.054Z,99.99
2022-10-31T06:42:14.042Z,99.99
2022-10-31T06:43:14.062Z,99.99
2022-10-31T06:44:14.051Z,99.99
2022-10-31T06:45:14.001Z,99.99
2022-10-31T06:46:13.993Z,99.99
2022-10-31T06:47:13.971Z,99.99
2022-10-31T06:48:18.230Z,99.99
2022-10-31T06:49:13.952Z,99.99
2022-10-31T06:50:13.946Z,99.99
2022-10-31T06:51:13.922Z,99.99
2022-10-31T06:52:13.920Z,99.99
2022-10-31T06:53:13.932Z,99.99
2022-10-31T06:54:13.881Z,99.99
2022-10-31T06:55:13.871Z,99.99
2022-10-31T06:56:13.874Z,99.99
2022-10-31T06:57:13.849Z,99.99
2022-10-31T06:58:13.881Z,99.99
2022-10-31T06:59:13.821Z,99.99
2022-10-31T07:00:13.951Z,99.99
2022-10-31T07:01:13.897Z,99.99
2022-10-31T07:02:13.866Z,99.99
2022-10-31T07:03:13.808Z,99.99
2022-10-31T07:04:13.861Z,99.99
2022-10-31T07:05:13.759Z,99.99
2022-10-31T07:06:13.911Z,99.99
2022-10-31T07:07:13.881Z,99.99
2022-10-31T07:08:13.982Z,99.99
2022-10-31T07:09:13.850Z,99.99
2022-10-31T07:10:14.755Z,99.99
2022-10-31T07:11:13.687Z,99.99
2022-10-31T07:12:13.748Z,99.99
2022-10-31T07:13:13.678Z,99.99
2022-10-31T07:14:13.719Z,99.99
2022-10-31T07:15:13.729Z,99.99
2022-10-31T07:16:13.719Z,99.99
2022-10-31T07:17:13.737Z,99.99
2022-10-31T07:18:13.769Z,99.99
2022-10-31T07:19:13.580Z,99.99
2022-10-31T07:20:13.552Z,99.99
2022-10-31T07:21:13.531Z,99.99
2022-10-31T07:22:13.518Z,99.99
2022-10-31T07:23:13.605Z,99.99
2022-10-31T07:24:13.500Z,99.99
2022-10-31T07:25:13.480Z,99.99
2022-10-31T07:26:13.492Z,99.99
2022-10-31T07:27:13.471Z,99.99
2022-10-31T07:28:13.470Z,99.99
2022-10-31T07:29:13.431Z,99.99
2022-10-31T07:30:13.408Z,99.99
2022-10-31T07:31:13.419Z,99.99
2022-10-31T07:32:13.378Z,99.99
2022-10-31T07:33:13.411Z,99.99
2022-10-31T07:34:13.358Z,99.99
2022-10-31T07:35:13.347Z,99.99
2022-10-31T07:36:13.327Z,99.99
2022-10-31T07:37:13.318Z,99.99
2022-10-31T07:38:13.328Z,99.99
2022-10-31T07:39:13.299Z,99.99
2022-10-31T07:40:13.278Z,99.99
2022-10-31T07:41:13.268Z,99.99
2022-10-31T07:42:13.253Z,99.99
2022-10-31T07:43:14.455Z,99.99
2022-10-31T07:44:13.229Z,99.99
2022-10-31T07:45:13.233Z,99.99
2022-10-31T07:46:13.198Z,99.99
2022-10-31T07:47:13.194Z,99.99
2022-10-31T07:48:13.199Z,99.99
2022-10-31T07:49:13.172Z,99.99
2022-10-31T07:50:13.158Z,99.99
2022-10-31T07:51:13.139Z,99.99
2022-10-31T07:52:13.118Z,99.99
2022-10-31T07:53:13.138Z,99.99
2022-10-31T07:54:13.197Z,99.99
2022-10-31T07:55:13.087Z,99.99
2022-10-31T07:56:13.072Z,99.99
2022-10-31T07:57:13.058Z,99.99
2022-10-31T07:58:13.075Z,99.99
2022-10-31T07:59:13.028Z,99.99
2022-10-31T08:00:13.017Z,99.99
2022-10-31T08:02:12.986Z,99.99
2022-10-31T08:03:13.008Z,99.99
2022-10-31T08:04:12.963Z,99.99
2022-10-31T08:05:12.998Z,99.99
2022-10-31T08:06:12.940Z,99.99
2022-10-31T08:07:13.085Z,99.99
2022-10-31T08:08:12.907Z,99.99
2022-10-31T08:09:12.928Z,99.99
2022-10-31T08:10:12.878Z,99.99
2022-10-31T08:11:12.907Z,99.99
2022-10-31T08:12:12.863Z,99.99
2022-10-31T08:13:12.872Z,99.99
2022-10-31T08:14:12.885Z,99.99
2022-10-31T08:15:12.819Z,99.99
2022-10-31T08:16:12.808Z,99.99
2022-10-31T08:17:12.797Z,99.99
2022-10-31T08:18:12.784Z,99.99
2022-10-31T08:19:12.799Z,99.99
2022-10-31T08:20:12.748Z,99.99
2022-10-31T08:21:12.738Z,99.99
2022-10-31T08:22:12.734Z,99.99
2022-10-31T08:23:12.717Z,99.99
2022-10-31T08:24:12.779Z,99.99
2022-10-31T08:25:12.690Z,99.99
2022-10-31T08:26:12.666Z,99.99
2022-10-31T08:27:12.676Z,99.99
2022-10-31T08:28:12.654Z,99.99
2022-10-31T08:29:12.657Z,99.99
2022-10-31T08:30:12.620Z,99.99
2022-10-31T08:31:12.606Z,99.99
2022-10-31T08:32:12.586Z,99.99
2022-10-31T08:33:12.588Z,99.99
2022-10-31T08:34:12.666Z,99.99
2022-10-31T08:35:12.556Z,99.99
2022-10-31T08:36:12.536Z,99.99
2022-10-31T08:37:12.527Z,99.99
2022-10-31T08:38:12.514Z,99.99
2022-10-31T08:39:12.826Z,99.99
2022-10-31T08:40:12.776Z,99.99
2022-10-31T08:41:12.554Z,99.99
2022-10-31T08:42:12.456Z,99.99
2022-10-31T08:43:12.446Z,99.99
2022-10-31T08:44:12.457Z,99.99
2022-10-31T08:45:12.425Z,99.99
2022-10-31T08:46:12.400Z,99.99
2022-10-31T08:47:12.397Z,99.99
2022-10-31T08:48:12.376Z,99.99
2022-10-31T08:49:12.419Z,99.99
2022-10-31T08:50:12.349Z,99.99
2022-10-31T08:51:12.336Z,99.99
2022-10-31T08:52:14.541Z,99.99
2022-10-31T08:53:12.339Z,99.99
2022-10-31T08:54:12.425Z,99.99
2022-10-31T08:55:12.476Z,99.99
2022-10-31T08:56:12.365Z,99.99
2022-10-31T08:57:12.266Z,99.99
2022-10-31T08:58:12.243Z,99.99
2022-10-31T08:59:12.271Z,99.99
2022-10-31T09:00:12.215Z,99.99
2022-10-31T09:01:12.346Z,99.99
2022-10-31T09:02:12.247Z,99.99
2022-10-31T09:03:12.186Z,99.99
2022-10-31T09:04:12.199Z,99.99
2022-10-31T09:05:12.157Z,99.99
2022-10-31T09:06:12.292Z,99.99
2022-10-31T09:07:27.383Z,99.99
2022-10-31T09:08:16.398Z,99.99
2022-10-31T09:09:12.126Z,99.99
2022-10-31T09:10:12.096Z,99.99
2022-10-31T09:11:12.087Z,98.41
2022-10-31T09:12:12.056Z,98.41
2022-10-31T09:13:12.046Z,96.48
2022-10-31T09:14:12.057Z,97.09
2022-10-31T09:15:12.030Z,97.80
2022-10-31T09:16:12.007Z,98.01
2022-10-31T09:17:12.019Z,97.20
2022-10-31T09:18:11.977Z,97.71
2022-10-31T09:19:11.997Z,98.57
2022-10-31T09:20:11.948Z,98.57
2022-10-31T09:21:11.939Z,98.88
2022-10-31T09:22:11.927Z,99.04
2022-10-31T09:23:11.916Z,98.02
2022-10-31T09:24:11.927Z,98.52
2022-10-31T09:25:11.888Z,97.31
2022-10-31T09:26:11.867Z,96.70
2022-10-31T09:27:11.857Z,96.86
2022-10-31T09:28:11.855Z,97.16
2022-10-31T09:29:11.857Z,97.47
2022-10-31T09:30:11.817Z,97.06
2022-10-31T09:31:11.813Z,96.45
2022-10-31T09:32:11.788Z,94.32
2022-10-31T09:33:11.777Z,95.23
2022-10-31T09:34:11.796Z,95.59
2022-10-31T09:36:11.738Z,94.18
2022-10-31T09:37:11.728Z,92.65
2022-10-31T09:38:11.708Z,95.09
2022-10-31T09:39:11.737Z,93.87
2022-10-31T09:40:11.679Z,94.74
2022-10-31T09:41:11.675Z,93.02
2022-10-31T09:42:11.658Z,92.61
2022-10-31T09:43:11.678Z,91.90
2022-10-31T09:44:11.657Z,91.70
2022-10-31T09:45:11.629Z,91.70
2022-10-31T09:46:11.768Z,92.06
2022-10-31T09:47:12.357Z,92.87
2022-10-31T09:48:11.578Z,93.27
2022-10-31T09:49:11.648Z,92.26
2022-10-31T09:50:11.548Z,93.84
2022-10-31T09:51:11.539Z,90.60
2022-10-31T09:53:11.511Z,90.84
2022-10-31T09:54:11.518Z,90.30
2022-10-31T09:55:11.488Z,91.11
2022-10-31T09:56:11.469Z,90.20
2022-10-31T09:57:11.461Z,90.09
2022-10-31T09:58:11.445Z,90.09
2022-10-31T09:59:11.505Z,89.99
2022-10-31T10:00:11.419Z,90.09
2022-10-31T10:01:11.524Z,89.59
2022-10-31T10:02:11.472Z,88.88
2022-10-31T10:03:11.499Z,89.79
2022-10-31T10:04:11.388Z,89.89
2022-10-31T10:05:11.361Z,89.89
2022-10-31T10:06:11.350Z,89.24
2022-10-31T10:07:11.339Z,89.70
2022-10-31T10:08:11.332Z,88.39
2022-10-31T10:09:11.377Z,88.90
2022-10-31T10:10:11.409Z,87.44
2022-10-31T10:11:11.279Z,87.64
2022-10-31T10:12:11.260Z,89.16
2022-10-31T10:13:12.149Z,89.22
2022-10-31T10:14:11.259Z,88.81
2022-10-31T10:15:11.226Z,88.31
2022-10-31T10:16:11.210Z,87.56
2022-10-31T10:17:11.202Z,86.95
2022-10-31T10:18:11.200Z,86.04
2022-10-31T10:19:11.240Z,85.03
2022-10-31T10:20:11.564Z,85.64
2022-10-31T10:21:11.150Z,86.55
2022-10-31T10:22:11.220Z,86.35
2022-10-31T10:23:11.210Z,84.63
2022-10-31T10:24:11.132Z,85.94
2022-10-31T10:25:11.132Z,87.12
2022-10-31T10:26:11.492Z,84.89
2022-10-31T10:27:11.119Z,83.38
2022-10-31T10:28:11.054Z,85.46
2022-10-31T10:29:11.138Z,85.46
2022-10-31T10:30:11.112Z,84.11
2022-10-31T10:31:11.010Z,83.50
2022-10-31T10:32:10.989Z,82.70
2022-10-31T10:33:10.980Z,83.91
2022-10-31T10:34:10.994Z,83.54
2022-10-31T10:35:11.007Z,84.05
2022-10-31T10:36:10.940Z,84.55
2022-10-31T10:37:11.062Z,84.05
2022-10-31T10:38:10.981Z,83.64
2022-10-31T10:39:11.048Z,84.25
2022-10-31T10:40:10.893Z,85.05
2022-10-31T10:41:10.881Z,84.15
2022-10-31T10:42:10.861Z,84.35
2022-10-31T10:43:10.889Z,84.21
2022-10-31T10:44:10.862Z,85.31
2022-10-31T10:45:10.832Z,84.41
2022-10-31T10:46:11.971Z,83.60
2022-10-31T10:47:10.802Z,83.30
2022-10-31T10:48:10.942Z,83.60
2022-10-31T10:49:10.803Z,84.31
2022-10-31T10:50:10.760Z,84.31
2022-10-31T10:51:25.463Z,84.21
2022-10-31T10:52:40.818Z,83.91
2022-10-31T10:53:11.724Z,82.50
2022-10-31T10:54:10.812Z,84.51
2022-10-31T10:55:10.701Z,82.79
2022-10-31T10:56:10.684Z,82.59
2022-10-31T10:57:10.673Z,83.00
2022-10-31T10:58:10.661Z,83.10
2022-10-31T10:59:10.747Z,83.80
2022-10-31T11:00:10.715Z,82.70
2022-10-31T11:01:10.810Z,84.01
2022-10-31T11:02:10.616Z,83.70
2022-10-31T11:03:10.754Z,83.00
2022-10-31T11:04:10.601Z,82.59
2022-10-31T11:05:10.623Z,83.60
2022-10-31T11:06:10.563Z,82.59
2022-10-31T11:07:10.544Z,83.40
2022-10-31T11:08:10.569Z,84.57
2022-10-31T11:09:10.574Z,82.65
2022-10-31T11:10:10.504Z,81.65
2022-10-31T11:11:10.487Z,81.65
2022-10-31T11:12:10.505Z,82.15
2022-10-31T11:13:10.465Z,81.85
2022-10-31T11:14:10.479Z,82.31
2022-10-31T11:15:10.435Z,82.21
2022-10-31T11:16:10.431Z,81.91
2022-10-31T11:17:10.406Z,80.20
2022-10-31T11:18:10.396Z,80.90
2022-10-31T11:19:10.405Z,82.48
2022-10-31T11:20:13.501Z,79.46
2022-10-31T11:21:11.345Z,80.16
2022-10-31T11:22:10.349Z,80.63
2022-10-31T11:23:10.608Z,79.32
2022-10-31T11:24:10.345Z,79.88
2022-10-31T11:25:10.307Z,78.23
2022-10-31T11:26:10.445Z,78.54
2022-10-31T11:27:10.406Z,77.43
2022-10-31T11:28:10.268Z,77.63
2022-10-31T11:29:10.427Z,76.73
2022-10-31T11:30:10.237Z,79.35
2022-10-31T11:31:10.377Z,78.14
2022-10-31T11:32:10.224Z,77.03
2022-10-31T11:33:10.308Z,77.83
2022-10-31T11:34:10.218Z,79.24
2022-10-31T11:35:10.176Z,78.03
2022-10-31T11:36:10.157Z,78.44
2022-10-31T11:37:10.175Z,78.54
2022-10-31T11:38:10.137Z,78.64
2022-10-31T11:39:10.155Z,78.60
2022-10-31T11:40:10.111Z,78.30
2022-10-31T11:41:10.169Z,78.20
2022-10-31T11:42:10.108Z,78.90
2022-10-31T11:43:10.068Z,77.39
2022-10-31T11:44:10.086Z,77.50
2022-10-31T11:45:10.209Z,78.50
2022-10-31T11:46:10.037Z,77.29
2022-10-31T11:47:10.198Z,78.00
2022-10-31T11:48:10.028Z,77.90
2022-10-31T11:49:10.017Z,78.80
2022-10-31T11:50:09.981Z,76.49
2022-10-31T11:51:09.959Z,76.89
2022-10-31T11:52:10.021Z,77.43
2022-10-31T11:53:09.941Z,77.43
2022-10-31T11:54:09.981Z,77.27
2022-10-31T11:55:09.922Z,78.78
2022-10-31T11:56:09.910Z,79.18
2022-10-31T11:57:09.891Z,79.28
2022-10-31T11:58:10.700Z,78.67
2022-10-31T11:59:09.899Z,79.08
2022-10-31T12:00:09.858Z,79.88
2022-10-31T12:01:09.879Z,80.08
2022-10-31T12:02:09.909Z,80.58
2022-10-31T12:03:09.890Z,78.61
2022-10-31T12:04:09.840Z,80.43
2022-10-31T12:05:09.781Z,79.28
2022-10-31T12:06:09.771Z,79.48
2022-10-31T12:07:09.760Z,80.19
2022-10-31T12:08:09.753Z,80.29
2022-10-31T12:09:09.760Z,79.08
2022-10-31T12:10:09.721Z,78.27
2022-10-31T12:11:09.722Z,77.67
2022-10-31T12:12:09.698Z,79.68
2022-10-31T12:13:09.695Z,78.58
2022-10-31T12:14:09.730Z,79.54
2022-10-31T12:15:09.652Z,77.73
2022-10-31T12:16:09.640Z,79.24
2022-10-31T12:17:09.672Z,78.54
2022-10-31T12:18:09.653Z,79.14
2022-10-31T12:19:09.753Z,78.94
2022-10-31T12:20:09.703Z,77.94
2022-10-31T12:21:09.583Z,79.08
2022-10-31T12:22:09.584Z,78.88
2022-10-31T12:23:10.333Z,78.78
2022-10-31T12:24:09.565Z,78.88
2022-10-31T12:25:09.533Z,80.02
2022-10-31T12:26:09.513Z,81.03
2022-10-31T12:27:09.493Z,80.63
2022-10-31T12:28:09.507Z,80.63
2022-10-31T12:29:09.506Z,80.22
2022-10-31T12:30:09.469Z,81.70
2022-10-31T12:31:09.445Z,80.63
2022-10-31T12:32:09.434Z,80.43
2022-10-31T12:33:09.421Z,80.12
2022-10-31T12:34:09.404Z,80.02
2022-10-31T12:35:09.416Z,81.63
2022-10-31T12:36:12.493Z,81.23
2022-10-31T12:37:10.364Z,81.13
2022-10-31T12:38:09.354Z,81.23
2022-10-31T12:39:09.342Z,81.43
2022-10-31T12:40:09.356Z,81.53
2022-10-31T12:41:09.316Z,82.04
2022-10-31T12:42:09.306Z,81.63
2022-10-31T12:43:09.285Z,81.84
2022-10-31T12:44:09.278Z,82.24
2022-10-31T12:45:09.287Z,81.63
2022-10-31T12:46:09.260Z,80.99
2022-10-31T12:47:09.237Z,81.43
2022-10-31T12:48:09.228Z,81.43
2022-10-31T12:49:09.217Z,81.19
2022-10-31T12:50:09.267Z,80.63
2022-10-31T12:51:09.187Z,81.29
2022-10-31T12:52:09.176Z,81.39
2022-10-31T12:53:09.234Z,80.99
2022-10-31T12:54:09.155Z,80.69
2022-10-31T12:55:09.169Z,81.09
2022-10-31T12:56:09.338Z,80.49
2022-10-31T12:57:13.370Z,81.39
2022-10-31T12:58:09.118Z,81.90
2022-10-31T12:59:09.088Z,80.89